createdAt,value
2018-07-23T00:00:31.207Z,200.43
2018-07-23T00:02:58.342Z,207.83
2018-07-23T00:05:25.590Z,198.10
2018-07-23T00:07:52.705Z,212.70
2018-07-23T00:10:20.038Z,190.70
2018-07-23T00:12:47.202Z,183.27
2018-07-23T00:15:14.342Z,199.00
2018-07-23T00:17:41.498Z,194.27
2018-07-23T00:20:08.646Z,192.87
2018-07-23T00:22:35.774Z,199.53
2018-07-23T00:25:02.990Z,203.10
2018-07-23T00:27:30.150Z,203.37
2018-07-23T00:29:57.278Z,195.33
2018-07-23T00:32:24.397Z,198.53
2018-07-23T00:34:51.517Z,197.17
2018-07-23T00:37:18.629Z,206.23
2018-07-23T00:39:45.746Z,190.53
2018-07-23T00:42:12.874Z,194.47
2018-07-23T00:44:39.990Z,194.60
2018-07-23T00:47:07.122Z,194.43
2018-07-23T00:49:34.666Z,196.03
2018-07-23T00:52:01.798Z,209.30
2018-07-23T00:54:28.922Z,207.73
2018-07-23T00:56:56.055Z,196.53
2018-07-23T00:59:23.178Z,214.63
2018-07-23T01:01:50.310Z,200.80
2018-07-23T01:04:17.430Z,199.33
2018-07-23T01:06:44.558Z,211.27
2018-07-23T01:09:11.661Z,210.87
2018-07-23T01:11:38.829Z,192.80
2018-07-23T01:14:06.034Z,213.30
2018-07-23T01:16:33.155Z,202.43
2018-07-23T01:19:00.254Z,197.50
2018-07-23T01:21:27.386Z,194.47
2018-07-23T01:23:54.497Z,206.87
2018-07-23T01:26:21.917Z,200.00
2018-07-23T01:28:49.045Z,208.13
2018-07-23T01:31:16.281Z,201.00
2018-07-23T01:33:43.417Z,211.30
2018-07-23T01:36:10.542Z,198.27
2018-07-23T01:38:37.641Z,219.10
2018-07-23T01:41:04.774Z,210.07
2018-07-23T01:43:32.067Z,204.00
2018-07-23T01:45:59.429Z,201.20
2018-07-23T01:48:26.526Z,204.63
2018-07-23T01:50:53.662Z,207.60
2018-07-23T01:53:20.778Z,208.50
2018-07-23T01:55:47.889Z,198.07
2018-07-23T01:58:15.015Z,198.60
2018-07-23T02:00:42.158Z,212.37
2018-07-23T02:03:09.302Z,211.03
2018-07-23T02:05:36.438Z,205.63
2018-07-23T02:08:03.588Z,207.80
2018-07-23T02:10:30.723Z,200.97
2018-07-23T02:12:57.862Z,213.00
2018-07-23T02:15:24.994Z,207.67
2018-07-23T02:17:52.134Z,196.93
2018-07-23T02:20:19.294Z,208.33
2018-07-23T02:22:46.438Z,206.73
2018-07-23T02:25:13.654Z,200.77
2018-07-23T02:27:40.833Z,201.23
2018-07-23T02:30:07.998Z,204.03
2018-07-23T02:32:35.162Z,204.73
2018-07-23T02:35:02.350Z,218.63
2018-07-23T02:37:29.482Z,201.03
2018-07-23T02:39:56.617Z,203.70
2018-07-23T02:42:23.770Z,207.10
2018-07-23T02:44:50.906Z,204.83
2018-07-23T02:47:18.030Z,199.40
2018-07-23T02:49:45.188Z,208.07
2018-07-23T02:52:12.333Z,201.00
2018-07-23T02:54:39.462Z,213.13
2018-07-23T02:57:06.887Z,214.93
2018-07-23T02:59:34.089Z,218.53
2018-07-23T03:02:01.135Z,200.27
2018-07-23T03:04:28.255Z,215.07
2018-07-23T03:06:55.414Z,207.17
2018-07-23T03:09:22.642Z,209.77
2018-07-23T03:11:49.758Z,198.33
2018-07-23T03:14:16.919Z,202.00
2018-07-23T03:16:44.047Z,210.43
2018-07-23T03:19:11.166Z,197.40
2018-07-23T03:21:38.343Z,201.00
2018-07-23T03:24:05.466Z,194.00
2018-07-23T03:26:32.595Z,203.17
2018-07-23T03:28:59.708Z,214.73
2018-07-23T03:31:26.830Z,203.90
2018-07-23T03:33:54.075Z,193.70
2018-07-23T03:36:21.203Z,205.13
2018-07-23T03:38:48.334Z,189.90
2018-07-23T03:41:15.450Z,199.23
2018-07-23T03:43:42.572Z,192.47
2018-07-23T03:46:09.739Z,189.10
2018-07-23T03:48:36.875Z,207.90
2018-07-23T03:51:04.006Z,208.40
2018-07-23T03:53:31.131Z,202.87
2018-07-23T03:55:58.274Z,200.03
2018-07-23T03:58:25.425Z,216.63
2018-07-23T04:00:52.577Z,195.97
2018-07-23T04:03:19.817Z,201.63
2018-07-23T04:05:46.978Z,209.83
2018-07-23T04:08:14.103Z,205.03
2018-07-23T04:10:41.321Z,184.70
2018-07-23T04:13:08.424Z,181.37
2018-07-23T04:15:35.593Z,189.37
2018-07-23T04:18:03.482Z,187.77
2018-07-23T04:20:32.170Z,195.60
2018-07-23T04:22:59.322Z,194.57
2018-07-23T04:25:26.845Z,194.87
2018-07-23T04:27:54.070Z,203.20
2018-07-23T04:30:21.225Z,198.27
2018-07-23T04:32:48.362Z,192.27
2018-07-23T04:35:15.549Z,204.97
2018-07-23T04:37:42.706Z,193.03
2018-07-23T04:40:09.846Z,206.90
2018-07-23T04:42:36.990Z,225.03
2018-07-23T04:45:04.215Z,200.57
2018-07-23T04:47:31.347Z,210.30
2018-07-23T04:49:58.486Z,196.07
2018-07-23T04:52:25.617Z,195.87
2018-07-23T04:54:52.757Z,204.60
2018-07-23T04:57:19.894Z,210.13
2018-07-23T04:59:47.051Z,206.90
2018-07-23T05:02:14.207Z,204.50
2018-07-23T05:04:41.342Z,208.40
2018-07-23T05:07:08.486Z,212.00
2018-07-23T05:09:35.630Z,195.73
2018-07-23T05:12:02.803Z,212.07
2018-07-23T05:14:29.937Z,211.70
2018-07-23T05:16:57.074Z,212.33
2018-07-23T05:19:24.218Z,218.40
2018-07-23T05:21:51.358Z,206.23
2018-07-23T05:24:18.519Z,210.60
2018-07-23T05:26:45.649Z,195.53
2018-07-23T05:29:12.785Z,207.87
2018-07-23T05:31:39.942Z,198.33
2018-07-23T05:34:07.083Z,188.67
2018-07-23T05:36:34.234Z,217.73
2018-07-23T05:39:01.398Z,196.57
2018-07-23T05:41:28.560Z,216.03
2018-07-23T05:43:55.710Z,209.73
2018-07-23T05:46:22.858Z,221.00
2018-07-23T05:48:49.998Z,212.57
2018-07-23T05:51:17.218Z,206.73
2018-07-23T05:53:44.385Z,221.77
2018-07-23T05:56:11.543Z,198.50
2018-07-23T05:58:38.710Z,217.60
2018-07-23T06:01:05.886Z,208.63
2018-07-23T06:03:33.100Z,232.67
2018-07-23T06:06:00.210Z,209.63
2018-07-23T06:08:27.350Z,215.37
2018-07-23T06:10:54.504Z,214.97
2018-07-23T06:13:21.693Z,210.60
2018-07-23T06:15:48.846Z,212.13
2018-07-23T06:18:15.999Z,222.53
2018-07-23T06:20:43.158Z,229.43
2018-07-23T06:23:10.326Z,215.03
2018-07-23T06:25:37.549Z,224.77
2018-07-23T06:28:05.234Z,240.17
2018-07-23T06:30:32.374Z,236.30
2018-07-23T06:32:59.538Z,241.27
2018-07-23T06:35:26.699Z,246.37
2018-07-23T06:37:53.843Z,245.97
2018-07-23T06:40:21.202Z,252.40
2018-07-23T06:42:48.391Z,245.33
2018-07-23T06:45:15.638Z,249.93
2018-07-23T06:47:42.790Z,227.57
2018-07-23T06:50:09.926Z,238.00
2018-07-23T06:52:37.070Z,258.80
2018-07-23T06:55:04.214Z,249.17
2018-07-23T06:57:31.429Z,251.10
2018-07-23T06:59:58.506Z,276.87
2018-07-23T07:02:25.630Z,279.13
2018-07-23T07:04:52.746Z,279.93
2018-07-23T07:07:19.871Z,300.77
2018-07-23T07:09:47.006Z,295.73
2018-07-23T07:12:14.135Z,289.10
2018-07-23T07:14:41.250Z,288.97
2018-07-23T07:17:08.374Z,303.87
2018-07-23T07:19:35.494Z,310.53
2018-07-23T07:22:02.631Z,307.33
2018-07-23T07:24:29.755Z,311.30
2018-07-23T07:26:56.910Z,338.07
2018-07-23T07:29:24.148Z,322.10
2018-07-23T07:31:51.274Z,314.77
2018-07-23T07:34:18.421Z,328.07
2018-07-23T07:36:45.556Z,352.57
2018-07-23T07:39:12.933Z,358.10
2018-07-23T07:41:40.522Z,354.67
2018-07-23T07:44:08.264Z,380.07
2018-07-23T07:46:35.659Z,358.40
2018-07-23T07:49:02.760Z,359.33
2018-07-23T07:51:29.981Z,363.90
2018-07-23T07:53:57.306Z,385.23
2018-07-23T07:56:24.422Z,378.87
2018-07-23T07:58:51.588Z,381.43
2018-07-23T08:01:18.723Z,367.70
2018-07-23T08:03:45.897Z,372.77
2018-07-23T08:06:13.210Z,382.50
2018-07-23T08:08:40.347Z,383.97
2018-07-23T08:11:07.642Z,387.07
2018-07-23T08:13:34.867Z,396.07
2018-07-23T08:16:02.030Z,444.47
2018-07-23T08:18:29.194Z,451.40
2018-07-23T08:20:56.361Z,462.60
2018-07-23T08:23:23.504Z,540.37
2018-07-23T08:25:50.671Z,550.60
2018-07-23T08:28:17.842Z,634.00
2018-07-23T08:30:45.002Z,576.03
2018-07-23T08:33:12.243Z,629.23
2018-07-23T08:35:39.397Z,622.63
2018-07-23T08:38:06.554Z,681.23
2018-07-23T08:40:33.698Z,706.43
2018-07-23T08:43:00.902Z,690.77
2018-07-23T08:45:28.007Z,730.27
2018-07-23T08:47:55.139Z,709.40
2018-07-23T08:50:22.306Z,738.90
2018-07-23T08:52:49.438Z,744.40
2018-07-23T08:55:16.609Z,732.43
2018-07-23T08:57:43.750Z,750.80
2018-07-23T09:00:11.044Z,734.33
2018-07-23T09:02:38.150Z,759.93
2018-07-23T09:05:05.302Z,763.77
2018-07-23T09:07:32.415Z,744.70
2018-07-23T09:09:59.551Z,761.50
2018-07-23T09:12:26.790Z,739.40
2018-07-23T09:14:53.946Z,725.00
2018-07-23T09:17:21.105Z,744.00
2018-07-23T09:19:48.231Z,696.80
2018-07-23T09:22:15.355Z,664.17
2018-07-23T09:24:42.490Z,631.00
2018-07-23T09:27:09.604Z,646.23
2018-07-23T09:29:36.722Z,599.80
2018-07-23T09:32:03.855Z,581.83
2018-07-23T09:34:30.979Z,604.70
2018-07-23T09:36:58.086Z,598.00
2018-07-23T09:39:25.211Z,624.27
2018-07-23T09:41:52.327Z,650.40
2018-07-23T09:44:19.494Z,678.33
2018-07-23T09:46:46.689Z,716.57
2018-07-23T09:49:13.814Z,740.37
2018-07-23T09:51:40.927Z,768.07
2018-07-23T09:54:08.043Z,751.67
2018-07-23T09:56:35.171Z,730.80
2018-07-23T09:59:02.277Z,759.27
2018-07-23T10:01:29.421Z,745.03
2018-07-23T10:03:56.677Z,746.07
2018-07-23T10:06:23.827Z,737.23
2018-07-23T10:08:50.964Z,751.90
2018-07-23T10:11:18.110Z,770.67
2018-07-23T10:13:45.275Z,728.43
2018-07-23T10:16:12.415Z,725.00
2018-07-23T10:18:39.578Z,692.57
2018-07-23T10:21:06.743Z,672.53
2018-07-23T10:23:34.915Z,684.53
2018-07-23T10:26:02.067Z,712.23
2018-07-23T10:28:29.270Z,727.90
2018-07-23T10:30:56.419Z,766.00
2018-07-23T10:33:23.546Z,729.13
2018-07-23T10:35:50.706Z,720.77
2018-07-23T10:38:17.879Z,726.90
2018-07-23T10:40:45.209Z,725.03
2018-07-23T10:43:12.342Z,666.77
2018-07-23T10:45:39.490Z,689.33
2018-07-23T10:48:06.769Z,693.23
2018-07-23T10:50:33.921Z,665.43
2018-07-23T10:53:01.082Z,715.13
2018-07-23T10:55:28.225Z,713.07
2018-07-23T10:57:55.393Z,774.70
2018-07-23T11:00:22.553Z,784.63
2018-07-23T11:02:49.702Z,768.47
2018-07-23T11:05:16.855Z,769.87
2018-07-23T11:07:44.006Z,775.03
2018-07-23T11:10:11.158Z,804.33
2018-07-23T11:12:38.322Z,789.33
2018-07-23T11:15:06.364Z,793.67
2018-07-23T11:17:33.559Z,798.23
2018-07-23T11:20:00.694Z,837.57
2018-07-23T11:22:27.855Z,823.93
2018-07-23T11:24:55.042Z,822.87
2018-07-23T11:27:22.219Z,814.87
2018-07-23T11:29:49.350Z,805.00
2018-07-23T11:32:16.501Z,779.10
2018-07-23T11:34:43.639Z,745.70
2018-07-23T11:37:10.787Z,726.73
2018-07-23T11:39:37.922Z,737.57
2018-07-23T11:42:05.178Z,726.07
2018-07-23T11:44:32.318Z,689.13
2018-07-23T11:46:59.486Z,665.27
2018-07-23T11:49:26.618Z,695.10
2018-07-23T11:51:53.755Z,703.73
2018-07-23T11:54:20.891Z,721.80
2018-07-23T11:56:48.092Z,740.87
2018-07-23T11:59:15.233Z,787.73
2018-07-23T12:01:42.362Z,799.60
2018-07-23T12:04:10.403Z,812.57
2018-07-23T12:06:36.682Z,822.87
2018-07-23T12:09:06.822Z,826.93
2018-07-23T12:11:33.971Z,826.00
2018-07-23T12:14:01.082Z,840.50
2018-07-23T12:16:28.190Z,814.90
2018-07-23T12:18:55.314Z,803.70
2018-07-23T12:21:22.434Z,799.10
2018-07-23T12:23:49.558Z,810.83
2018-07-23T12:26:16.669Z,782.00
2018-07-23T12:28:43.786Z,813.13
2018-07-23T12:31:10.904Z,799.93
2018-07-23T12:33:38.046Z,797.93
2018-07-23T12:36:05.185Z,804.83
2018-07-23T12:38:32.315Z,803.33
2018-07-23T12:40:59.434Z,816.90
2018-07-23T12:43:26.545Z,799.23
2018-07-23T12:45:53.650Z,823.43
2018-07-23T12:48:20.771Z,810.43
2018-07-23T12:50:47.914Z,818.00
2018-07-23T12:53:15.089Z,813.10
2018-07-23T12:55:42.202Z,806.80
2018-07-23T12:58:09.329Z,768.43
2018-07-23T13:00:36.465Z,780.17
2018-07-23T13:03:03.587Z,758.10
2018-07-23T13:05:32.502Z,791.60
2018-07-23T13:08:00.615Z,749.90
2018-07-23T13:10:27.793Z,757.93
2018-07-23T13:12:54.911Z,772.87
2018-07-23T13:15:22.062Z,825.20
2018-07-23T13:17:49.191Z,792.50
2018-07-23T13:20:16.370Z,825.40
2018-07-23T13:22:43.498Z,795.00
2018-07-23T13:25:10.627Z,816.97
2018-07-23T13:27:37.757Z,827.90
2018-07-23T13:30:04.964Z,841.40
2018-07-23T13:32:32.089Z,839.37
2018-07-23T13:34:59.249Z,833.97
2018-07-23T13:37:26.379Z,830.87
2018-07-23T13:39:53.506Z,825.03
2018-07-23T13:42:20.631Z,825.73
2018-07-23T13:44:47.754Z,835.23
2018-07-23T13:47:14.874Z,826.03
2018-07-23T13:49:42.006Z,816.73
2018-07-23T13:52:09.150Z,843.00
2018-07-23T13:54:36.270Z,816.38
2018-07-23T13:57:03.407Z,849.93
2018-07-23T13:59:30.550Z,846.90
2018-07-23T14:01:57.690Z,827.58
2018-07-23T14:04:24.833Z,837.10
2018-07-23T14:06:52.005Z,824.47
2018-07-23T14:09:19.170Z,813.10
2018-07-23T14:11:46.301Z,826.20
2018-07-23T14:14:13.434Z,804.97
2018-07-23T14:16:40.570Z,793.30
2018-07-23T14:19:07.725Z,766.90
2018-07-23T14:21:34.920Z,791.13
2018-07-23T14:24:02.015Z,775.37
2018-07-23T14:26:29.165Z,792.83
2018-07-23T14:28:56.295Z,816.10
2018-07-23T14:31:23.438Z,769.00
2018-07-23T14:33:50.567Z,805.00
2018-07-23T14:36:17.706Z,759.70
2018-07-23T14:38:44.854Z,779.80
2018-07-23T14:41:11.994Z,752.03
2018-07-23T14:43:39.177Z,747.77
2018-07-23T14:46:06.315Z,785.90
2018-07-23T14:48:33.535Z,800.10
2018-07-23T14:51:00.690Z,761.17
2018-07-23T14:53:27.870Z,762.03
2018-07-23T14:55:55.014Z,768.93
2018-07-23T14:58:22.150Z,768.63
2018-07-23T15:00:49.269Z,790.80
2018-07-23T15:03:16.439Z,766.67
2018-07-23T15:05:43.510Z,791.20
2018-07-23T15:08:10.687Z,764.80
2018-07-23T15:10:37.811Z,756.70
2018-07-23T15:13:05.137Z,792.97
2018-07-23T15:15:32.287Z,784.67
2018-07-23T15:17:59.401Z,752.10
2018-07-23T15:20:26.510Z,746.83
2018-07-23T15:22:53.642Z,734.30
2018-07-23T15:25:20.758Z,736.10
2018-07-23T15:27:47.870Z,732.20
2018-07-23T15:30:14.993Z,759.47
2018-07-23T15:32:42.134Z,758.17
2018-07-23T15:35:09.264Z,764.73
2018-07-23T15:37:36.384Z,767.63
2018-07-23T15:40:03.742Z,746.40
2018-07-23T15:42:30.891Z,745.27
2018-07-23T15:44:58.273Z,717.93
2018-07-23T15:47:25.251Z,756.70
2018-07-23T15:49:52.379Z,740.63
2018-07-23T15:52:19.522Z,716.07
2018-07-23T15:54:46.702Z,735.33
2018-07-23T15:57:13.885Z,748.63
2018-07-23T15:59:41.034Z,727.70
2018-07-23T16:02:08.172Z,726.50
2018-07-23T16:04:35.542Z,721.00
2018-07-23T16:07:02.694Z,737.47
2018-07-23T16:09:29.845Z,743.67
2018-07-23T16:11:56.965Z,727.70
2018-07-23T16:14:24.095Z,758.67
2018-07-23T16:16:51.241Z,735.90
2018-07-23T16:19:18.378Z,722.17
2018-07-23T16:21:45.526Z,724.57
2018-07-23T16:24:12.774Z,693.43
2018-07-23T16:26:40.014Z,715.57
2018-07-23T16:29:07.325Z,696.37
2018-07-23T16:31:34.510Z,700.97
2018-07-23T16:34:01.854Z,698.00
2018-07-23T16:36:29.298Z,679.80
2018-07-23T16:38:56.567Z,676.47
2018-07-23T16:41:23.838Z,715.40
2018-07-23T16:43:51.191Z,697.47
2018-07-23T16:46:18.641Z,699.47
2018-07-23T16:48:45.890Z,689.10
2018-07-23T16:51:13.232Z,718.03
2018-07-23T16:53:40.562Z,684.27
2018-07-23T16:56:07.768Z,668.83
2018-07-23T16:58:34.922Z,658.40
2018-07-23T17:01:02.131Z,686.33
2018-07-23T17:03:29.379Z,676.47
2018-07-23T17:05:56.738Z,691.40
2018-07-23T17:08:23.898Z,670.70
2018-07-23T17:10:51.261Z,652.33
2018-07-23T17:13:18.493Z,664.00
2018-07-23T17:15:45.758Z,642.60
2018-07-23T17:18:13.131Z,638.13
2018-07-23T17:20:40.251Z,651.20
2018-07-23T17:23:07.682Z,630.63
2018-07-23T17:25:34.890Z,660.67
2018-07-23T17:28:02.094Z,640.30
2018-07-23T17:30:29.230Z,648.57
2018-07-23T17:32:56.434Z,599.70
2018-07-23T17:35:23.594Z,604.03
2018-07-23T17:37:50.734Z,637.33
2018-07-23T17:40:18.090Z,611.97
2018-07-23T17:42:45.242Z,608.07
2018-07-23T17:45:12.474Z,594.00
2018-07-23T17:47:39.580Z,571.93
2018-07-23T17:50:06.732Z,585.83
2018-07-23T17:52:33.859Z,553.13
2018-07-23T17:55:01.038Z,550.60
2018-07-23T17:57:28.172Z,532.63
2018-07-23T17:59:55.302Z,517.53
2018-07-23T18:02:23.228Z,495.67
2018-07-23T18:04:50.386Z,494.53
2018-07-23T18:07:17.574Z,501.20
2018-07-23T18:09:44.713Z,473.63
2018-07-23T18:12:11.890Z,440.10
2018-07-23T18:14:38.991Z,461.70
2018-07-23T18:17:06.298Z,439.90
2018-07-23T18:19:33.492Z,437.97
2018-07-23T18:22:00.675Z,423.77
2018-07-23T18:24:27.971Z,423.67
2018-07-23T18:26:55.150Z,435.13
2018-07-23T18:29:22.305Z,435.60
2018-07-23T18:31:49.430Z,429.17
2018-07-23T18:34:16.557Z,403.77
2018-07-23T18:36:43.694Z,383.50
2018-07-23T18:39:12.027Z,381.50
2018-07-23T18:41:39.394Z,392.10
2018-07-23T18:44:06.741Z,396.70
2018-07-23T18:46:34.082Z,372.10
2018-07-23T18:49:25.152Z,356.57
2018-07-23T18:51:53.180Z,346.23
2018-07-23T18:54:21.361Z,362.40
2018-07-23T18:56:51.266Z,345.13
2018-07-23T18:59:18.460Z,361.20
2018-07-23T19:01:46.488Z,347.40
2018-07-23T19:04:13.701Z,346.13
2018-07-23T19:06:42.128Z,341.23
2018-07-23T19:09:12.846Z,334.27
2018-07-23T19:11:40.806Z,320.23
2018-07-23T19:14:08.035Z,348.00
2018-07-23T19:16:35.206Z,325.63
2018-07-23T19:19:02.750Z,355.73
2018-07-23T19:21:31.107Z,313.40
2018-07-23T19:23:58.299Z,336.47
2018-07-23T19:26:25.529Z,319.63
2018-07-23T19:28:53.031Z,313.00
2018-07-23T19:31:20.223Z,322.20
2018-07-23T19:33:47.639Z,312.47
2018-07-23T19:36:14.832Z,305.50
2018-07-23T19:38:42.111Z,295.03
2018-07-23T19:41:09.334Z,298.93
2018-07-23T19:43:37.474Z,282.53
2018-07-23T19:46:04.911Z,307.07
2018-07-23T19:48:32.114Z,299.80
2018-07-23T19:50:59.270Z,280.90
2018-07-23T19:53:26.574Z,280.93
2018-07-23T19:55:53.738Z,273.40
2018-07-23T19:58:21.087Z,293.50
2018-07-23T20:00:48.254Z,292.20
2018-07-23T20:03:15.434Z,275.40
2018-07-23T20:05:42.606Z,280.47
2018-07-23T20:08:09.806Z,297.83
2018-07-23T20:10:37.058Z,275.00
2018-07-23T20:13:04.269Z,288.00
2018-07-23T20:15:31.394Z,294.07
2018-07-23T20:17:58.561Z,268.70
2018-07-23T20:20:25.738Z,275.57
2018-07-23T20:22:53.014Z,287.73
2018-07-23T20:25:20.158Z,266.83
2018-07-23T20:27:47.393Z,285.97
2018-07-23T20:30:14.546Z,277.37
2018-07-23T20:32:41.714Z,277.60
2018-07-23T20:35:08.894Z,274.03
2018-07-23T20:37:36.054Z,278.10
2018-07-23T20:40:03.229Z,261.43
2018-07-23T20:42:30.366Z,274.70
2018-07-23T20:44:57.550Z,291.63
2018-07-23T20:47:24.706Z,268.20
2018-07-23T20:49:51.854Z,268.70
2018-07-23T20:52:19.026Z,271.23
2018-07-23T20:54:46.222Z,263.43
2018-07-23T20:57:13.390Z,270.67
2018-07-23T20:59:40.542Z,292.20
2018-07-23T21:02:07.714Z,251.53
2018-07-23T21:04:34.910Z,258.77
2018-07-23T21:07:02.022Z,272.07
2018-07-23T21:09:29.237Z,259.07
2018-07-23T21:11:56.421Z,277.17
2018-07-23T21:14:23.546Z,253.40
2018-07-23T21:16:50.673Z,271.83
2018-07-23T21:19:17.796Z,251.07
2018-07-23T21:21:44.986Z,250.00
2018-07-23T21:24:12.219Z,249.17
2018-07-23T21:26:39.345Z,259.87
2018-07-23T21:29:06.502Z,263.07
2018-07-23T21:31:33.643Z,271.97
2018-07-23T21:34:00.786Z,258.63
2018-07-23T21:36:28.034Z,276.77
2018-07-23T21:38:55.158Z,250.57
2018-07-23T21:41:22.282Z,272.20
2018-07-23T21:43:49.463Z,261.67
2018-07-23T21:46:17.198Z,244.70
2018-07-23T21:48:44.343Z,246.43
2018-07-23T21:51:11.479Z,247.43
2018-07-23T21:53:38.678Z,248.93
2018-07-23T21:56:05.848Z,245.43
2018-07-23T21:58:32.970Z,249.47
2018-07-23T22:01:00.107Z,249.90
2018-07-23T22:03:27.244Z,237.03
2018-07-23T22:05:54.379Z,231.70
2018-07-23T22:08:21.506Z,260.07
2018-07-23T22:10:48.622Z,236.83
2018-07-23T22:13:15.822Z,243.77
2018-07-23T22:15:42.939Z,259.27
2018-07-23T22:18:10.062Z,266.27
2018-07-23T22:20:37.222Z,252.40
2018-07-23T22:23:04.548Z,266.03
2018-07-23T22:25:31.803Z,262.90
2018-07-23T22:27:58.841Z,246.87
2018-07-23T22:30:25.974Z,236.47
2018-07-23T22:32:53.090Z,228.27
2018-07-23T22:35:20.214Z,250.50
2018-07-23T22:37:47.355Z,269.87
2018-07-23T22:40:14.478Z,266.60
2018-07-23T22:42:41.590Z,272.90
2018-07-23T22:45:08.834Z,246.23
2018-07-23T22:47:35.947Z,249.67
2018-07-23T22:50:03.422Z,246.70
2018-07-23T22:52:30.543Z,267.80
2018-07-23T22:54:57.682Z,242.10
2018-07-23T22:57:24.838Z,248.63
2018-07-23T22:59:51.974Z,249.07
2018-07-23T23:02:19.098Z,245.37
2018-07-23T23:04:46.246Z,259.33
2018-07-23T23:07:13.448Z,265.80
2018-07-23T23:09:40.582Z,259.03
2018-07-23T23:12:08.177Z,246.13
2018-07-23T23:14:35.314Z,249.03
2018-07-23T23:17:02.462Z,255.60
2018-07-23T23:19:29.709Z,240.30
2018-07-23T23:21:56.914Z,240.23
2018-07-23T23:24:24.098Z,254.83
2018-07-23T23:26:51.530Z,244.80
2018-07-23T23:29:18.686Z,230.97
2018-07-23T23:31:45.826Z,231.77
2018-07-23T23:34:12.953Z,233.80
2018-07-23T23:36:40.118Z,247.67
2018-07-23T23:39:08.462Z,239.27
2018-07-23T23:41:35.614Z,247.87
2018-07-23T23:44:02.745Z,244.37
2018-07-23T23:46:29.890Z,228.07
2018-07-23T23:48:57.033Z,241.10
2018-07-23T23:51:24.166Z,248.50
2018-07-23T23:53:51.306Z,232.77
2018-07-23T23:56:18.466Z,233.03
2018-07-23T23:58:45.594Z,233.33
